sensor_id;sensor_type;location;lat;lon;timestamp;P1;durP1;ratioP1;P2;durP2;ratioP2
46355;SDS011;32066;49.474;11.106;2023-03-18T00:00:14;10.75;;;6.03;;
46355;SDS011;32066;49.474;11.106;2023-03-18T00:02:47;10.98;;;6.30;;
46355;SDS011;32066;49.474;11.106;2023-03-18T00:05:16;10.05;;;5.88;;
46355;SDS011;32066;49.474;11.106;2023-03-18T00:07:49;12.00;;;6.13;;
46355;SDS011;32066;49.474;11.106;2023-03-18T00:10:18;19.33;;;9.88;;
46355;SDS011;32066;49.474;11.106;2023-03-18T00:12:46;21.15;;;10.52;;
46355;SDS011;32066;49.474;11.106;2023-03-18T00:15:16;11.73;;;7.55;;
46355;SDS011;32066;49.474;11.106;2023-03-18T00:17:45;14.07;;;6.63;;
46355;SDS011;32066;49.474;11.106;2023-03-18T00:20:15;10.38;;;6.20;;
46355;SDS011;32066;49.474;11.106;2023-03-18T00:22:55;12.13;;;6.20;;
46355;SDS011;32066;49.474;11.106;2023-03-18T00:25:24;12.80;;;6.03;;
46355;SDS011;32066;49.474;11.106;2023-03-18T00:27:53;13.35;;;5.97;;
46355;SDS011;32066;49.474;11.106;2023-03-18T00:30:22;10.43;;;5.60;;
46355;SDS011;32066;49.474;11.106;2023-03-18T00:32:50;10.55;;;5.88;;
46355;SDS011;32066;49.474;11.106;2023-03-18T00:35:19;12.25;;;5.93;;
46355;SDS011;32066;49.474;11.106;2023-03-18T00:37:48;9.35;;;5.47;;
46355;SDS011;32066;49.474;11.106;2023-03-18T00:40:19;14.65;;;6.70;;
46355;SDS011;32066;49.474;11.106;2023-03-18T00:42:54;11.18;;;5.40;;
46355;SDS011;32066;49.474;11.106;2023-03-18T00:45:32;8.32;;;4.90;;
46355;SDS011;32066;49.474;11.106;2023-03-18T00:48:01;8.48;;;4.93;;
46355;SDS011;32066;49.474;11.106;2023-03-18T00:50:30;9.10;;;5.22;;
46355;SDS011;32066;49.474;11.106;2023-03-18T00:52:59;9.40;;;5.47;;
46355;SDS011;32066;49.474;11.106;2023-03-18T00:55:30;9.82;;;5.35;;
46355;SDS011;32066;49.474;11.106;2023-03-18T00:57:59;9.27;;;5.25;;
46355;SDS011;32066;49.474;11.106;2023-03-18T01:00:28;9.10;;;4.88;;
46355;SDS011;32066;49.474;11.106;2023-03-18T01:02:56;10.75;;;5.03;;
46355;SDS011;32066;49.474;11.106;2023-03-18T01:05:31;9.07;;;4.28;;
46355;SDS011;32066;49.474;11.106;2023-03-18T01:08:00;8.75;;;4.28;;
46355;SDS011;32066;49.474;11.106;2023-03-18T01:10:32;7.20;;;4.28;;
46355;SDS011;32066;49.474;11.106;2023-03-18T01:13:01;7.68;;;4.13;;
46355;SDS011;32066;49.474;11.106;2023-03-18T01:15:29;9.55;;;4.22;;
46355;SDS011;32066;49.474;11.106;2023-03-18T01:17:58;9.18;;;4.18;;
46355;SDS011;32066;49.474;11.106;2023-03-18T01:20:28;10.23;;;4.38;;
46355;SDS011;32066;49.474;11.106;2023-03-18T01:22:57;7.80;;;4.15;;
46355;SDS011;32066;49.474;11.106;2023-03-18T01:25:26;8.70;;;4.10;;
46355;SDS011;32066;49.474;11.106;2023-03-18T01:27:58;8.32;;;3.95;;
46355;SDS011;32066;49.474;11.106;2023-03-18T01:30:26;8.70;;;4.38;;
46355;SDS011;32066;49.474;11.106;2023-03-18T01:32:55;8.18;;;4.50;;
46355;SDS011;32066;49.474;11.106;2023-03-18T01:35:25;7.93;;;4.22;;
46355;SDS011;32066;49.474;11.106;2023-03-18T01:37:54;9.00;;;4.25;;
46355;SDS011;32066;49.474;11.106;2023-03-18T01:40:23;10.13;;;4.28;;
46355;SDS011;32066;49.474;11.106;2023-03-18T01:42:59;9.48;;;4.80;;
46355;SDS011;32066;49.474;11.106;2023-03-18T01:45:41;9.00;;;4.47;;
46355;SDS011;32066;49.474;11.106;2023-03-18T01:48:15;10.48;;;5.00;;
46355;SDS011;32066;49.474;11.106;2023-03-18T01:50:46;8.40;;;4.70;;
46355;SDS011;32066;49.474;11.106;2023-03-18T01:53:19;9.77;;;4.53;;
46355;SDS011;32066;49.474;11.106;2023-03-18T01:55:49;9.27;;;4.88;;
46355;SDS011;32066;49.474;11.106;2023-03-18T01:58:21;9.68;;;5.30;;
46355;SDS011;32066;49.474;11.106;2023-03-18T02:01:00;11.30;;;5.30;;
46355;SDS011;32066;49.474;11.106;2023-03-18T02:03:47;11.13;;;5.05;;
46355;SDS011;32066;49.474;11.106;2023-03-18T02:06:19;8.65;;;4.35;;
46355;SDS011;32066;49.474;11.106;2023-03-18T02:08:55;10.48;;;5.15;;
46355;SDS011;32066;49.474;11.106;2023-03-18T02:11:24;9.80;;;4.95;;
46355;SDS011;32066;49.474;11.106;2023-03-18T02:13:59;14.00;;;4.85;;
46355;SDS011;32066;49.474;11.106;2023-03-18T02:16:31;10.55;;;5.40;;
46355;SDS011;32066;49.474;11.106;2023-03-18T02:19:08;10.43;;;5.00;;
46355;SDS011;32066;49.474;11.106;2023-03-18T02:21:46;12.10;;;4.80;;
46355;SDS011;32066;49.474;11.106;2023-03-18T02:24:26;9.63;;;4.78;;
46355;SDS011;32066;49.474;11.106;2023-03-18T02:27:15;9.52;;;5.00;;
46355;SDS011;32066;49.474;11.106;2023-03-18T02:32:17;10.93;;;4.68;;
46355;SDS011;32066;49.474;11.106;2023-03-18T02:34:48;14.60;;;5.00;;
46355;SDS011;32066;49.474;11.106;2023-03-18T02:37:17;10.57;;;4.95;;
46355;SDS011;32066;49.474;11.106;2023-03-18T02:39:46;9.25;;;4.88;;
46355;SDS011;32066;49.474;11.106;2023-03-18T02:42:27;10.38;;;4.68;;
46355;SDS011;32066;49.474;11.106;2023-03-18T02:44:58;11.10;;;4.88;;
46355;SDS011;32066;49.474;11.106;2023-03-18T02:47:43;11.77;;;4.83;;
46355;SDS011;32066;49.474;11.106;2023-03-18T02:50:15;11.70;;;5.07;;
46355;SDS011;32066;49.474;11.106;2023-03-18T02:52:45;8.35;;;4.78;;
46355;SDS011;32066;49.474;11.106;2023-03-18T02:55:15;11.70;;;5.45;;
46355;SDS011;32066;49.474;11.106;2023-03-18T02:57:46;10.40;;;4.82;;
46355;SDS011;32066;49.474;11.106;2023-03-18T03:00:15;7.57;;;4.50;;
46355;SDS011;32066;49.474;11.106;2023-03-18T03:02:44;10.70;;;4.30;;
46355;SDS011;32066;49.474;11.106;2023-03-18T03:05:13;8.70;;;4.40;;
46355;SDS011;32066;49.474;11.106;2023-03-18T03:07:42;8.40;;;4.65;;
46355;SDS011;32066;49.474;11.106;2023-03-18T03:10:11;9.35;;;4.57;;
46355;SDS011;32066;49.474;11.106;2023-03-18T03:12:42;10.13;;;4.82;;
46355;SDS011;32066;49.474;11.106;2023-03-18T03:15:16;11.02;;;5.10;;
46355;SDS011;32066;49.474;11.106;2023-03-18T03:17:52;9.52;;;4.50;;
46355;SDS011;32066;49.474;11.106;2023-03-18T03:20:21;12.38;;;4.47;;
46355;SDS011;32066;49.474;11.106;2023-03-18T03:22:49;8.40;;;4.32;;
46355;SDS011;32066;49.474;11.106;2023-03-18T03:25:19;7.97;;;4.80;;
46355;SDS011;32066;49.474;11.106;2023-03-18T03:27:48;8.40;;;4.53;;
46355;SDS011;32066;49.474;11.106;2023-03-18T03:30:19;11.38;;;5.10;;
46355;SDS011;32066;49.474;11.106;2023-03-18T03:32:48;10.40;;;4.63;;
46355;SDS011;32066;49.474;11.106;2023-03-18T03:35:18;11.15;;;4.90;;
46355;SDS011;32066;49.474;11.106;2023-03-18T03:37:47;7.35;;;4.25;;
46355;SDS011;32066;49.474;11.106;2023-03-18T03:40:17;9.82;;;5.25;;
46355;SDS011;32066;49.474;11.106;2023-03-18T03:42:49;9.63;;;4.68;;
46355;SDS011;32066;49.474;11.106;2023-03-18T03:45:20;8.25;;;4.47;;
46355;SDS011;32066;49.474;11.106;2023-03-18T03:47:52;8.20;;;4.63;;
46355;SDS011;32066;49.474;11.106;2023-03-18T03:50:21;9.23;;;4.95;;
46355;SDS011;32066;49.474;11.106;2023-03-18T03:52:50;10.23;;;4.70;;
46355;SDS011;32066;49.474;11.106;2023-03-18T03:55:20;9.63;;;5.50;;
46355;SDS011;32066;49.474;11.106;2023-03-18T03:57:51;9.25;;;4.85;;
46355;SDS011;32066;49.474;11.106;2023-03-18T04:00:23;7.78;;;4.40;;
46355;SDS011;32066;49.474;11.106;2023-03-18T04:02:52;8.82;;;4.47;;
46355;SDS011;32066;49.474;11.106;2023-03-18T04:05:23;10.10;;;4.70;;
46355;SDS011;32066;49.474;11.106;2023-03-18T04:07:52;9.02;;;4.40;;
46355;SDS011;32066;49.474;11.106;2023-03-18T04:10:32;9.57;;;4.72;;
46355;SDS011;32066;49.474;11.106;2023-03-18T04:13:03;8.07;;;4.35;;
46355;SDS011;32066;49.474;11.106;2023-03-18T04:15:35;8.40;;;4.32;;
46355;SDS011;32066;49.474;11.106;2023-03-18T04:18:10;9.27;;;4.93;;
46355;SDS011;32066;49.474;11.106;2023-03-18T04:20:41;20.83;;;4.40;;
46355;SDS011;32066;49.474;11.106;2023-03-18T04:23:25;7.47;;;4.43;;
46355;SDS011;32066;49.474;11.106;2023-03-18T04:25:55;8.52;;;4.10;;
46355;SDS011;32066;49.474;11.106;2023-03-18T04:28:24;9.90;;;4.88;;
46355;SDS011;32066;49.474;11.106;2023-03-18T04:30:55;10.02;;;4.50;;
46355;SDS011;32066;49.474;11.106;2023-03-18T04:33:24;9.80;;;4.20;;
46355;SDS011;32066;49.474;11.106;2023-03-18T04:35:53;8.65;;;4.35;;
46355;SDS011;32066;49.474;11.106;2023-03-18T04:38:22;8.70;;;4.55;;
46355;SDS011;32066;49.474;11.106;2023-03-18T04:40:53;9.27;;;4.28;;
46355;SDS011;32066;49.474;11.106;2023-03-18T04:43:21;10.00;;;4.63;;
46355;SDS011;32066;49.474;11.106;2023-03-18T04:45:51;9.50;;;4.45;;
46355;SDS011;32066;49.474;11.106;2023-03-18T04:48:22;8.68;;;4.55;;
46355;SDS011;32066;49.474;11.106;2023-03-18T04:50:54;6.93;;;4.35;;
46355;SDS011;32066;49.474;11.106;2023-03-18T04:53:26;9.35;;;4.55;;
46355;SDS011;32066;49.474;11.106;2023-03-18T04:55:56;9.35;;;5.00;;
46355;SDS011;32066;49.474;11.106;2023-03-18T04:58:32;10.60;;;4.88;;
46355;SDS011;32066;49.474;11.106;2023-03-18T05:01:16;8.27;;;4.47;;
46355;SDS011;32066;49.474;11.106;2023-03-18T05:03:48;7.45;;;4.45;;
46355;SDS011;32066;49.474;11.106;2023-03-18T05:06:19;9.40;;;4.35;;
46355;SDS011;32066;49.474;11.106;2023-03-18T05:09:10;10.68;;;4.63;;
46355;SDS011;32066;49.474;11.106;2023-03-18T05:11:41;8.68;;;4.60;;
46355;SDS011;32066;49.474;11.106;2023-03-18T05:14:17;7.70;;;4.43;;
46355;SDS011;32066;49.474;11.106;2023-03-18T05:16:47;9.82;;;4.78;;
46355;SDS011;32066;49.474;11.106;2023-03-18T05:19:19;11.38;;;4.65;;
46355;SDS011;32066;49.474;11.106;2023-03-18T05:22:05;8.95;;;4.95;;
46355;SDS011;32066;49.474;11.106;2023-03-18T05:24:34;9.52;;;4.82;;
46355;SDS011;32066;49.474;11.106;2023-03-18T05:27:03;8.88;;;4.82;;
46355;SDS011;32066;49.474;11.106;2023-03-18T05:29:37;9.48;;;4.68;;
46355;SDS011;32066;49.474;11.106;2023-03-18T05:32:17;8.55;;;4.75;;
46355;SDS011;32066;49.474;11.106;2023-03-18T05:34:54;9.25;;;4.95;;
46355;SDS011;32066;49.474;11.106;2023-03-18T05:37:23;10.55;;;4.90;;
46355;SDS011;32066;49.474;11.106;2023-03-18T05:40:04;8.98;;;5.47;;
46355;SDS011;32066;49.474;11.106;2023-03-18T05:42:37;11.82;;;4.68;;
46355;SDS011;32066;49.474;11.106;2023-03-18T05:45:08;8.77;;;5.38;;
46355;SDS011;32066;49.474;11.106;2023-03-18T05:47:46;9.60;;;4.95;;
46355;SDS011;32066;49.474;11.106;2023-03-18T05:50:22;9.68;;;4.95;;
46355;SDS011;32066;49.474;11.106;2023-03-18T05:52:56;9.60;;;4.68;;
46355;SDS011;32066;49.474;11.106;2023-03-18T05:55:29;9.48;;;4.60;;
46355;SDS011;32066;49.474;11.106;2023-03-18T05:57:58;10.40;;;5.10;;
46355;SDS011;32066;49.474;11.106;2023-03-18T06:00:28;11.38;;;4.95;;
46355;SDS011;32066;49.474;11.106;2023-03-18T06:03:00;8.00;;;4.60;;
46355;SDS011;32066;49.474;11.106;2023-03-18T06:05:31;8.55;;;4.90;;
46355;SDS011;32066;49.474;11.106;2023-03-18T06:08:00;9.65;;;5.15;;
46355;SDS011;32066;49.474;11.106;2023-03-18T06:10:28;9.05;;;5.07;;
46355;SDS011;32066;49.474;11.106;2023-03-18T06:12:57;13.05;;;5.03;;
46355;SDS011;32066;49.474;11.106;2023-03-18T06:15:26;8.38;;;4.68;;
46355;SDS011;32066;49.474;11.106;2023-03-18T06:17:56;9.80;;;4.70;;
46355;SDS011;32066;49.474;11.106;2023-03-18T06:20:25;10.52;;;5.20;;
46355;SDS011;32066;49.474;11.106;2023-03-18T06:22:56;9.95;;;5.07;;
46355;SDS011;32066;49.474;11.106;2023-03-18T06:25:26;8.25;;;5.03;;
46355;SDS011;32066;49.474;11.106;2023-03-18T06:27:54;8.93;;;5.05;;
46355;SDS011;32066;49.474;11.106;2023-03-18T06:30:26;13.57;;;5.70;;
46355;SDS011;32066;49.474;11.106;2023-03-18T06:32:57;8.98;;;5.05;;
46355;SDS011;32066;49.474;11.106;2023-03-18T06:35:26;9.40;;;5.35;;
46355;SDS011;32066;49.474;11.106;2023-03-18T06:37:58;8.15;;;4.95;;
46355;SDS011;32066;49.474;11.106;2023-03-18T06:40:27;8.60;;;5.15;;
46355;SDS011;32066;49.474;11.106;2023-03-18T06:42:56;9.57;;;4.80;;
46355;SDS011;32066;49.474;11.106;2023-03-18T06:45:33;8.88;;;5.00;;
46355;SDS011;32066;49.474;11.106;2023-03-18T06:48:05;8.68;;;5.18;;
46355;SDS011;32066;49.474;11.106;2023-03-18T06:50:38;12.05;;;5.80;;
46355;SDS011;32066;49.474;11.106;2023-03-18T06:53:18;10.55;;;6.03;;
46355;SDS011;32066;49.474;11.106;2023-03-18T06:55:47;8.43;;;5.18;;
46355;SDS011;32066;49.474;11.106;2023-03-18T06:58:19;9.20;;;5.18;;
46355;SDS011;32066;49.474;11.106;2023-03-18T07:00:57;11.02;;;5.57;;
46355;SDS011;32066;49.474;11.106;2023-03-18T07:03:32;9.93;;;5.23;;
46355;SDS011;32066;49.474;11.106;2023-03-18T07:06:02;10.32;;;5.30;;
46355;SDS011;32066;49.474;11.106;2023-03-18T07:08:34;9.30;;;5.30;;
46355;SDS011;32066;49.474;11.106;2023-03-18T07:11:04;9.30;;;5.53;;
46355;SDS011;32066;49.474;11.106;2023-03-18T07:13:36;8.98;;;5.43;;
46355;SDS011;32066;49.474;11.106;2023-03-18T07:16:11;9.13;;;6.22;;
46355;SDS011;32066;49.474;11.106;2023-03-18T07:18:40;13.32;;;7.40;;
46355;SDS011;32066;49.474;11.106;2023-03-18T07:21:10;15.10;;;8.93;;
46355;SDS011;32066;49.474;11.106;2023-03-18T07:23:43;20.88;;;11.38;;
46355;SDS011;32066;49.474;11.106;2023-03-18T07:26:12;19.48;;;10.45;;
46355;SDS011;32066;49.474;11.106;2023-03-18T07:28:40;13.70;;;8.15;;
46355;SDS011;32066;49.474;11.106;2023-03-18T07:31:09;15.32;;;7.38;;
46355;SDS011;32066;49.474;11.106;2023-03-18T07:33:38;10.32;;;6.22;;
46355;SDS011;32066;49.474;11.106;2023-03-18T07:36:07;11.98;;;6.20;;
46355;SDS011;32066;49.474;11.106;2023-03-18T07:38:36;10.13;;;5.90;;
46355;SDS011;32066;49.474;11.106;2023-03-18T07:41:07;8.40;;;5.28;;
46355;SDS011;32066;49.474;11.106;2023-03-18T07:43:36;11.65;;;5.78;;
46355;SDS011;32066;49.474;11.106;2023-03-18T07:46:05;8.82;;;5.50;;
46355;SDS011;32066;49.474;11.106;2023-03-18T07:48:34;10.02;;;5.75;;
46355;SDS011;32066;49.474;11.106;2023-03-18T07:51:02;11.30;;;5.95;;
46355;SDS011;32066;49.474;11.106;2023-03-18T07:53:31;10.95;;;5.78;;
46355;SDS011;32066;49.474;11.106;2023-03-18T07:56:02;11.93;;;6.13;;
46355;SDS011;32066;49.474;11.106;2023-03-18T07:58:34;10.88;;;5.68;;
46355;SDS011;32066;49.474;11.106;2023-03-18T08:01:03;9.13;;;5.30;;
46355;SDS011;32066;49.474;11.106;2023-03-18T08:03:32;10.57;;;5.25;;
46355;SDS011;32066;49.474;11.106;2023-03-18T08:06:01;9.35;;;5.70;;
46355;SDS011;32066;49.474;11.106;2023-03-18T08:08:29;8.98;;;5.50;;
46355;SDS011;32066;49.474;11.106;2023-03-18T08:10:58;9.25;;;5.30;;
46355;SDS011;32066;49.474;11.106;2023-03-18T08:13:27;10.45;;;5.45;;
46355;SDS011;32066;49.474;11.106;2023-03-18T08:15:58;10.73;;;5.63;;
46355;SDS011;32066;49.474;11.106;2023-03-18T08:18:27;9.57;;;5.18;;
46355;SDS011;32066;49.474;11.106;2023-03-18T08:20:56;10.98;;;4.72;;
46355;SDS011;32066;49.474;11.106;2023-03-18T08:23:25;8.77;;;5.30;;
46355;SDS011;32066;49.474;11.106;2023-03-18T08:25:53;9.02;;;5.32;;
46355;SDS011;32066;49.474;11.106;2023-03-18T08:28:23;9.40;;;5.05;;
46355;SDS011;32066;49.474;11.106;2023-03-18T08:30:53;9.80;;;4.80;;
46355;SDS011;32066;49.474;11.106;2023-03-18T08:33:26;11.98;;;8.30;;
46355;SDS011;32066;49.474;11.106;2023-03-18T08:35:55;13.35;;;6.70;;
46355;SDS011;32066;49.474;11.106;2023-03-18T08:38:24;11.93;;;6.70;;
46355;SDS011;32066;49.474;11.106;2023-03-18T08:40:53;8.93;;;5.15;;
46355;SDS011;32066;49.474;11.106;2023-03-18T08:43:22;10.98;;;5.07;;
46355;SDS011;32066;49.474;11.106;2023-03-18T08:45:51;9.35;;;5.45;;
46355;SDS011;32066;49.474;11.106;2023-03-18T08:48:21;10.00;;;5.18;;
46355;SDS011;32066;49.474;11.106;2023-03-18T08:50:53;9.85;;;5.30;;
46355;SDS011;32066;49.474;11.106;2023-03-18T08:53:21;11.38;;;5.10;;
46355;SDS011;32066;49.474;11.106;2023-03-18T08:55:50;11.35;;;4.55;;
46355;SDS011;32066;49.474;11.106;2023-03-18T08:58:18;9.35;;;5.13;;
46355;SDS011;32066;49.474;11.106;2023-03-18T09:00:47;10.05;;;4.70;;
46355;SDS011;32066;49.474;11.106;2023-03-18T09:03:16;10.68;;;4.88;;
46355;SDS011;32066;49.474;11.106;2023-03-18T09:05:46;9.25;;;5.45;;
46355;SDS011;32066;49.474;11.106;2023-03-18T09:08:19;11.27;;;6.65;;
46355;SDS011;32066;49.474;11.106;2023-03-18T09:10:50;12.20;;;5.70;;
46355;SDS011;32066;49.474;11.106;2023-03-18T09:13:19;10.43;;;5.47;;
46355;SDS011;32066;49.474;11.106;2023-03-18T09:15:48;12.15;;;4.82;;
46355;SDS011;32066;49.474;11.106;2023-03-18T09:18:17;8.15;;;4.38;;
46355;SDS011;32066;49.474;11.106;2023-03-18T09:20:47;10.68;;;4.47;;
46355;SDS011;32066;49.474;11.106;2023-03-18T09:23:16;12.02;;;4.40;;
46355;SDS011;32066;49.474;11.106;2023-03-18T09:25:47;7.05;;;4.00;;
46355;SDS011;32066;49.474;11.106;2023-03-18T09:28:18;10.40;;;4.72;;
46355;SDS011;32066;49.474;11.106;2023-03-18T09:30:48;10.27;;;4.38;;
46355;SDS011;32066;49.474;11.106;2023-03-18T09:33:17;9.90;;;4.32;;
46355;SDS011;32066;49.474;11.106;2023-03-18T09:35:46;9.75;;;4.72;;
46355;SDS011;32066;49.474;11.106;2023-03-18T09:38:16;9.13;;;4.82;;
46355;SDS011;32066;49.474;11.106;2023-03-18T09:40:50;11.05;;;4.20;;
46355;SDS011;32066;49.474;11.106;2023-03-18T09:43:30;9.10;;;4.18;;
46355;SDS011;32066;49.474;11.106;2023-03-18T09:46:24;6.70;;;3.70;;
46355;SDS011;32066;49.474;11.106;2023-03-18T09:49:04;7.05;;;3.75;;
46355;SDS011;32066;49.474;11.106;2023-03-18T09:51:55;7.05;;;3.47;;
46355;SDS011;32066;49.474;11.106;2023-03-18T09:54:34;8.25;;;3.88;;
46355;SDS011;32066;49.474;11.106;2023-03-18T09:57:10;9.77;;;3.60;;
46355;SDS011;32066;49.474;11.106;2023-03-18T09:59:44;9.10;;;3.97;;
46355;SDS011;32066;49.474;11.106;2023-03-18T10:02:20;6.80;;;3.60;;
46355;SDS011;32066;49.474;11.106;2023-03-18T10:04:53;7.95;;;3.47;;
46355;SDS011;32066;49.474;11.106;2023-03-18T10:07:26;7.22;;;3.42;;
46355;SDS011;32066;49.474;11.106;2023-03-18T10:10:01;7.25;;;3.10;;
46355;SDS011;32066;49.474;11.106;2023-03-18T10:12:34;9.02;;;3.20;;
46355;SDS011;32066;49.474;11.106;2023-03-18T10:15:10;7.60;;;3.38;;
46355;SDS011;32066;49.474;11.106;2023-03-18T10:17:44;7.78;;;3.10;;
46355;SDS011;32066;49.474;11.106;2023-03-18T10:20:18;7.40;;;3.15;;
46355;SDS011;32066;49.474;11.106;2023-03-18T10:22:57;7.40;;;3.07;;
46355;SDS011;32066;49.474;11.106;2023-03-18T10:25:36;8.85;;;2.88;;
46355;SDS011;32066;49.474;11.106;2023-03-18T10:28:21;7.13;;;3.00;;
46355;SDS011;32066;49.474;11.106;2023-03-18T10:31:05;8.50;;;3.10;;
46355;SDS011;32066;49.474;11.106;2023-03-18T10:33:45;8.35;;;2.72;;
46355;SDS011;32066;49.474;11.106;2023-03-18T10:36:21;8.48;;;2.58;;
46355;SDS011;32066;49.474;11.106;2023-03-18T10:38:57;5.88;;;2.90;;
46355;SDS011;32066;49.474;11.106;2023-03-18T10:41:31;8.75;;;2.63;;
46355;SDS011;32066;49.474;11.106;2023-03-18T10:44:03;5.78;;;2.47;;
46355;SDS011;32066;49.474;11.106;2023-03-18T10:46:40;8.65;;;2.88;;
46355;SDS011;32066;49.474;11.106;2023-03-18T10:49:11;6.20;;;3.13;;
46355;SDS011;32066;49.474;11.106;2023-03-18T10:51:45;6.75;;;2.47;;
46355;SDS011;32066;49.474;11.106;2023-03-18T10:54:20;5.55;;;2.78;;
46355;SDS011;32066;49.474;11.106;2023-03-18T10:56:56;5.82;;;2.78;;
46355;SDS011;32066;49.474;11.106;2023-03-18T10:59:25;6.07;;;2.47;;
46355;SDS011;32066;49.474;11.106;2023-03-18T11:01:57;7.32;;;3.20;;
46355;SDS011;32066;49.474;11.106;2023-03-18T11:04:30;7.10;;;2.42;;
46355;SDS011;32066;49.474;11.106;2023-03-18T11:07:04;6.97;;;2.75;;
46355;SDS011;32066;49.474;11.106;2023-03-18T11:09:39;7.20;;;2.65;;
46355;SDS011;32066;49.474;11.106;2023-03-18T11:12:16;11.25;;;2.80;;
46355;SDS011;32066;49.474;11.106;2023-03-18T11:14:46;8.10;;;2.60;;
46355;SDS011;32066;49.474;11.106;2023-03-18T11:17:19;8.98;;;3.03;;
46355;SDS011;32066;49.474;11.106;2023-03-18T11:19:57;6.68;;;2.90;;
46355;SDS011;32066;49.474;11.106;2023-03-18T11:22:30;11.30;;;3.28;;
46355;SDS011;32066;49.474;11.106;2023-03-18T11:25:01;5.93;;;2.40;;
46355;SDS011;32066;49.474;11.106;2023-03-18T11:27:36;6.75;;;2.42;;
46355;SDS011;32066;49.474;11.106;2023-03-18T11:30:10;7.10;;;2.50;;
46355;SDS011;32066;49.474;11.106;2023-03-18T11:32:49;9.60;;;2.78;;
46355;SDS011;32066;49.474;11.106;2023-03-18T11:35:21;6.63;;;3.10;;
46355;SDS011;32066;49.474;11.106;2023-03-18T11:37:51;6.25;;;2.47;;
46355;SDS011;32066;49.474;11.106;2023-03-18T11:40:23;9.00;;;2.80;;
46355;SDS011;32066;49.474;11.106;2023-03-18T11:42:59;6.78;;;2.45;;
46355;SDS011;32066;49.474;11.106;2023-03-18T11:45:30;5.10;;;2.67;;
46355;SDS011;32066;49.474;11.106;2023-03-18T11:48:13;6.75;;;2.50;;
46355;SDS011;32066;49.474;11.106;2023-03-18T11:50:49;7.95;;;2.40;;
46355;SDS011;32066;49.474;11.106;2023-03-18T11:53:31;6.50;;;2.40;;
46355;SDS011;32066;49.474;11.106;2023-03-18T11:56:10;5.45;;;2.25;;
46355;SDS011;32066;49.474;11.106;2023-03-18T11:58:54;6.60;;;2.28;;
46355;SDS011;32066;49.474;11.106;2023-03-18T12:01:45;7.15;;;2.58;;
46355;SDS011;32066;49.474;11.106;2023-03-18T12:04:29;6.80;;;2.55;;
46355;SDS011;32066;49.474;11.106;2023-03-18T12:07:15;7.25;;;2.30;;
46355;SDS011;32066;49.474;11.106;2023-03-18T12:09:56;6.75;;;2.10;;
46355;SDS011;32066;49.474;11.106;2023-03-18T12:15:34;5.50;;;2.20;;
46355;SDS011;32066;49.474;11.106;2023-03-18T12:18:14;10.43;;;2.60;;
46355;SDS011;32066;49.474;11.106;2023-03-18T12:21:06;6.40;;;2.38;;
46355;SDS011;32066;49.474;11.106;2023-03-18T12:23:52;7.25;;;2.30;;
46355;SDS011;32066;49.474;11.106;2023-03-18T12:26:32;8.98;;;2.33;;
46355;SDS011;32066;49.474;11.106;2023-03-18T12:32:08;6.68;;;2.47;;
46355;SDS011;32066;49.474;11.106;2023-03-18T12:37:57;6.35;;;2.20;;
46355;SDS011;32066;49.474;11.106;2023-03-18T12:40:41;7.18;;;2.22;;
46355;SDS011;32066;49.474;11.106;2023-03-18T12:43:23;6.70;;;2.10;;
46355;SDS011;32066;49.474;11.106;2023-03-18T12:46:15;5.97;;;2.08;;
46355;SDS011;32066;49.474;11.106;2023-03-18T12:48:54;5.20;;;2.25;;
46355;SDS011;32066;49.474;11.106;2023-03-18T12:51:29;5.70;;;1.95;;
46355;SDS011;32066;49.474;11.106;2023-03-18T12:54:06;6.43;;;2.10;;
46355;SDS011;32066;49.474;11.106;2023-03-18T12:56:42;7.47;;;1.80;;
46355;SDS011;32066;49.474;11.106;2023-03-18T12:59:17;4.97;;;1.73;;
46355;SDS011;32066;49.474;11.106;2023-03-18T13:01:55;5.90;;;2.17;;
46355;SDS011;32066;49.474;11.106;2023-03-18T13:04:44;6.18;;;2.30;;
46355;SDS011;32066;49.474;11.106;2023-03-18T13:07:20;4.72;;;1.95;;
46355;SDS011;32066;49.474;11.106;2023-03-18T13:09:59;6.78;;;2.30;;
46355;SDS011;32066;49.474;11.106;2023-03-18T13:12:34;6.10;;;1.95;;
46355;SDS011;32066;49.474;11.106;2023-03-18T13:15:09;10.93;;;2.15;;
46355;SDS011;32066;49.474;11.106;2023-03-18T13:17:43;7.30;;;2.45;;
46355;SDS011;32066;49.474;11.106;2023-03-18T13:20:17;5.03;;;2.10;;
46355;SDS011;32066;49.474;11.106;2023-03-18T13:23:02;9.02;;;2.33;;
46355;SDS011;32066;49.474;11.106;2023-03-18T13:25:45;4.40;;;1.80;;
46355;SDS011;32066;49.474;11.106;2023-03-18T13:28:28;6.05;;;2.35;;
46355;SDS011;32066;49.474;11.106;2023-03-18T13:31:13;5.45;;;1.83;;
46355;SDS011;32066;49.474;11.106;2023-03-18T13:36:56;7.55;;;1.73;;
46355;SDS011;32066;49.474;11.106;2023-03-18T13:39:41;4.22;;;1.73;;
46355;SDS011;32066;49.474;11.106;2023-03-18T13:42:18;5.07;;;1.83;;
46355;SDS011;32066;49.474;11.106;2023-03-18T13:44:54;5.43;;;1.83;;
46355;SDS011;32066;49.474;11.106;2023-03-18T13:47:29;5.28;;;1.60;;
46355;SDS011;32066;49.474;11.106;2023-03-18T13:50:00;4.95;;;2.00;;
46355;SDS011;32066;49.474;11.106;2023-03-18T13:52:39;6.95;;;1.90;;
46355;SDS011;32066;49.474;11.106;2023-03-18T13:55:14;4.93;;;1.70;;
46355;SDS011;32066;49.474;11.106;2023-03-18T13:57:56;4.90;;;1.63;;
46355;SDS011;32066;49.474;11.106;2023-03-18T14:00:37;5.50;;;1.90;;
46355;SDS011;32066;49.474;11.106;2023-03-18T14:03:14;5.47;;;1.80;;
46355;SDS011;32066;49.474;11.106;2023-03-18T14:05:47;5.22;;;1.60;;
46355;SDS011;32066;49.474;11.106;2023-03-18T14:11:36;5.20;;;1.80;;
46355;SDS011;32066;49.474;11.106;2023-03-18T14:17:14;6.63;;;1.75;;
46355;SDS011;32066;49.474;11.106;2023-03-18T14:19:45;5.60;;;1.52;;
46355;SDS011;32066;49.474;11.106;2023-03-18T14:22:20;6.28;;;1.88;;
46355;SDS011;32066;49.474;11.106;2023-03-18T14:25:17;4.90;;;1.70;;
46355;SDS011;32066;49.474;11.106;2023-03-18T14:27:50;6.32;;;2.38;;
46355;SDS011;32066;49.474;11.106;2023-03-18T14:36:03;4.70;;;1.80;;
46355;SDS011;32066;49.474;11.106;2023-03-18T14:38:35;4.78;;;1.77;;
46355;SDS011;32066;49.474;11.106;2023-03-18T14:41:15;5.10;;;2.10;;
46355;SDS011;32066;49.474;11.106;2023-03-18T14:43:52;7.85;;;2.25;;
46355;SDS011;32066;49.474;11.106;2023-03-18T14:46:31;5.63;;;1.92;;
46355;SDS011;32066;49.474;11.106;2023-03-18T14:49:17;5.23;;;2.20;;
46355;SDS011;32066;49.474;11.106;2023-03-18T14:51:57;5.82;;;1.85;;
46355;SDS011;32066;49.474;11.106;2023-03-18T14:54:27;5.45;;;1.90;;
46355;SDS011;32066;49.474;11.106;2023-03-18T14:57:03;4.93;;;1.90;;
46355;SDS011;32066;49.474;11.106;2023-03-18T14:59:32;6.03;;;2.17;;
46355;SDS011;32066;49.474;11.106;2023-03-18T15:02:01;4.57;;;1.65;;
46355;SDS011;32066;49.474;11.106;2023-03-18T15:04:34;5.30;;;1.77;;
46355;SDS011;32066;49.474;11.106;2023-03-18T15:07:03;7.75;;;2.20;;
46355;SDS011;32066;49.474;11.106;2023-03-18T15:09:35;4.05;;;1.70;;
46355;SDS011;32066;49.474;11.106;2023-03-18T15:12:23;5.95;;;1.92;;
46355;SDS011;32066;49.474;11.106;2023-03-18T15:14:55;8.50;;;2.20;;
46355;SDS011;32066;49.474;11.106;2023-03-18T15:17:24;5.88;;;1.70;;
46355;SDS011;32066;49.474;11.106;2023-03-18T15:19:57;5.95;;;1.90;;
46355;SDS011;32066;49.474;11.106;2023-03-18T15:22:27;8.00;;;2.65;;
46355;SDS011;32066;49.474;11.106;2023-03-18T15:24:59;7.32;;;2.78;;
46355;SDS011;32066;49.474;11.106;2023-03-18T15:27:33;7.03;;;2.30;;
46355;SDS011;32066;49.474;11.106;2023-03-18T15:30:04;6.00;;;2.42;;
46355;SDS011;32066;49.474;11.106;2023-03-18T15:32:41;5.97;;;2.25;;